Time;durP1;ratioP1;P1;durP2;ratioP2;P2;SDS_P1;SDS_P2;PMS_P1;PMS_P2;Temp;Humidity;BMP_temperature;BMP_pressure;BME280_temperature;BME280_humidity;BME280_pressure;Samples;Min_cycle;Max_cycle;Signal;HPM_P1;HPM_P2
2024/02/07 00:01:20;;;;;;;1.10;0.60;;;7.50;99.90;;;;;;5097580;28;20075;-62
2024/02/07 00:03:47;;;;;;;1.67;0.65;;;7.40;99.90;;;;;;5097953;28;20108;-64
2024/02/07 00:06:16;;;;;;;1.40;0.80;;;7.30;99.90;;;;;;5095814;28;20044;-62
2024/02/07 00:08:43;;;;;;;2.92;0.73;;;7.30;99.90;;;;;;5096310;28;20126;-62
2024/02/07 00:11:10;;;;;;;2.70;0.80;;;7.30;99.90;;;;;;5093466;28;20532;-61
2024/02/07 00:13:37;;;;;;;3.65;0.60;;;7.20;99.90;;;;;;5102300;28;20044;-67
2024/02/07 00:16:04;;;;;;;1.38;0.70;;;7.20;99.90;;;;;;5099237;28;20135;-62
2024/02/07 00:18:31;;;;;;;1.42;0.70;;;7.10;99.90;;;;;;5088488;28;20457;-62
2024/02/07 00:20:58;;;;;;;3.03;1.02;;;7.00;99.90;;;;;;5099102;28;20048;-62
2024/02/07 00:23:25;;;;;;;1.67;1.08;;;6.90;99.90;;;;;;5102132;28;20040;-62
2024/02/07 00:25:52;;;;;;;1.80;1.30;;;7.00;99.90;;;;;;5101811;28;20052;-62
2024/02/07 00:28:19;;;;;;;5.07;1.10;;;7.00;99.90;;;;;;5096680;28;20058;-63
2024/02/07 00:30:46;;;;;;;2.35;0.93;;;6.90;99.90;;;;;;5092222;28;20044;-63
2024/02/07 00:33:13;;;;;;;2.00;0.90;;;6.90;99.90;;;;;;5085725;28;20050;-62
2024/02/07 00:35:40;;;;;;;1.60;1.02;;;6.90;99.90;;;;;;5096743;28;20457;-62
2024/02/07 00:38:07;;;;;;;2.45;1.02;;;6.90;99.90;;;;;;5105109;28;20047;-62
2024/02/07 00:40:34;;;;;;;3.33;1.33;;;7.00;99.90;;;;;;5094095;28;20845;-62
2024/02/07 00:43:01;;;;;;;3.47;1.00;;;7.00;99.90;;;;;;5096468;28;20050;-62
2024/02/07 00:45:29;;;;;;;4.25;1.00;;;6.90;99.90;;;;;;5095820;28;20067;-61
2024/02/07 00:47:56;;;;;;;1.52;0.80;;;6.90;99.90;;;;;;5097495;28;20043;-62
2024/02/07 00:50:23;;;;;;;1.33;0.70;;;6.90;99.90;;;;;;5100311;28;20528;-62
2024/02/07 00:52:50;;;;;;;2.47;0.75;;;6.90;99.90;;;;;;5093945;28;20043;-61
2024/02/07 00:55:17;;;;;;;3.15;0.82;;;6.90;99.90;;;;;;5094871;28;20063;-62
2024/02/07 00:57:49;;;;;;;3.00;0.90;;;7.00;99.90;;;;;;5097924;28;20054;-62
2024/02/07 01:00:18;;;;;;;3.78;0.90;;;7.00;99.90;;;;;;5089243;28;20131;-61
2024/02/07 01:02:45;;;;;;;0.98;0.65;;;7.00;99.90;;;;;;5100080;28;20051;-62
2024/02/07 01:05:12;;;;;;;1.13;0.70;;;6.90;99.90;;;;;;5090828;28;20044;-61
2024/02/07 01:07:39;;;;;;;1.50;0.80;;;6.80;99.90;;;;;;5092929;28;20062;-61
2024/02/07 01:10:07;;;;;;;4.00;1.20;;;6.80;99.90;;;;;;5103908;28;20048;-61
2024/02/07 01:12:33;;;;;;;3.92;2.15;;;6.80;99.90;;;;;;5096071;28;20112;-61
2024/02/07 01:15:00;;;;;;;2.28;0.80;;;6.70;99.90;;;;;;5103989;28;20051;-62
2024/02/07 01:17:27;;;;;;;3.80;0.90;;;6.70;99.90;;;;;;5097439;28;20492;-62
2024/02/07 01:19:54;;;;;;;1.80;0.82;;;6.70;99.90;;;;;;5099629;28;20058;-62
2024/02/07 01:22:22;;;;;;;3.65;0.70;;;6.70;99.90;;;;;;5098654;28;20079;-62
2024/02/07 01:24:49;;;;;;;5.28;0.75;;;6.70;99.90;;;;;;5094647;28;20394;-61
2024/02/07 01:27:16;;;;;;;4.85;0.80;;;6.60;99.90;;;;;;5090354;28;20451;-61
2024/02/07 01:29:43;;;;;;;2.20;0.82;;;6.60;99.90;;;;;;5087293;28;20044;-61
2024/02/07 01:32:10;;;;;;;1.70;0.70;;;6.50;99.90;;;;;;5094020;28;20051;-61
2024/02/07 01:34:37;;;;;;;5.63;1.00;;;6.50;99.90;;;;;;5104507;28;20047;-61
2024/02/07 01:37:05;;;;;;;2.47;0.80;;;6.60;99.90;;;;;;5100127;28;20055;-61
2024/02/07 01:39:34;;;;;;;2.55;0.73;;;6.50;99.90;;;;;;5101903;28;20117;-61
2024/02/07 01:42:02;;;;;;;5.63;0.95;;;6.50;99.90;;;;;;5099808;28;20047;-62
2024/02/07 01:44:29;;;;;;;4.55;1.13;;;6.60;99.90;;;;;;5099357;28;20056;-62
2024/02/07 01:47:12;;;;;;;5.43;1.08;;;6.50;99.90;;;;;;5099188;28;20089;-62
2024/02/07 01:49:49;;;;;;;2.90;0.80;;;6.50;99.90;;;;;;5097416;28;20040;-62
2024/02/07 01:52:23;;;;;;;1.88;0.73;;;6.50;99.90;;;;;;5080090;28;20151;-61
2024/02/07 01:54:50;;;;;;;3.63;1.63;;;6.50;99.90;;;;;;5100928;28;20039;-61
2024/02/07 01:57:17;;;;;;;3.83;0.82;;;6.40;99.90;;;;;;5099042;28;20560;-61
2024/02/07 01:59:44;;;;;;;3.60;1.13;;;6.40;99.90;;;;;;5100814;28;20039;-65
2024/02/07 02:02:11;;;;;;;3.15;0.90;;;6.40;99.90;;;;;;5088984;28;20109;-62
2024/02/07 02:04:38;;;;;;;4.68;1.13;;;6.40;99.90;;;;;;5095520;28;20338;-62
2024/02/07 02:07:05;;;;;;;2.13;1.08;;;6.40;99.90;;;;;;5095327;28;20392;-61
2024/02/07 02:09:31;;;;;;;2.55;0.68;;;6.40;99.90;;;;;;5098279;28;20085;-62
2024/02/07 02:11:58;;;;;;;6.65;1.02;;;6.50;99.90;;;;;;5103058;28;20051;-62
2024/02/07 02:14:25;;;;;;;3.08;0.68;;;6.40;99.90;;;;;;5094939;28;20102;-61
2024/02/07 02:16:52;;;;;;;1.60;0.88;;;6.30;99.90;;;;;;5087258;28;20052;-63
2024/02/07 02:19:20;;;;;;;2.72;0.90;;;6.40;99.90;;;;;;5097276;28;20057;-61
2024/02/07 02:22:16;;;;;;;1.25;0.68;;;6.40;99.90;;;;;;5106353;28;20100;-63
2024/02/07 02:24:55;;;;;;;4.35;1.55;;;6.40;99.90;;;;;;5096652;28;20101;-62
2024/02/07 02:27:37;;;;;;;1.55;0.93;;;6.40;99.90;;;;;;5102830;28;20556;-62
2024/02/07 02:30:12;;;;;;;2.20;1.00;;;6.40;99.90;;;;;;5101957;28;20113;-62
2024/02/07 02:32:39;;;;;;;3.78;1.10;;;6.40;99.90;;;;;;5103818;28;20120;-61
2024/02/07 02:35:07;;;;;;;2.78;1.00;;;6.40;99.90;;;;;;5099575;28;20073;-62
2024/02/07 02:37:34;;;;;;;4.75;1.98;;;6.40;99.90;;;;;;5104007;28;20659;-63
2024/02/07 02:40:05;;;;;;;1.38;0.95;;;6.40;99.90;;;;;;5098289;28;20044;-62
2024/02/07 02:42:33;;;;;;;1.40;1.10;;;6.40;99.90;;;;;;5094795;28;20040;-62
2024/02/07 02:45:00;;;;;;;1.75;0.88;;;6.40;99.90;;;;;;5100590;28;20055;-61
2024/02/07 02:47:28;;;;;;;5.30;1.05;;;6.30;99.90;;;;;;5097612;28;20177;-61
2024/02/07 02:49:55;;;;;;;3.65;0.80;;;6.30;99.90;;;;;;5096880;28;20083;-61
2024/02/07 02:52:22;;;;;;;6.07;1.58;;;6.40;99.90;;;;;;5097991;28;20645;-61
2024/02/07 02:54:49;;;;;;;1.17;0.90;;;6.30;99.90;;;;;;5094192;28;20090;-61
2024/02/07 02:57:19;;;;;;;4.00;1.10;;;6.40;99.90;;;;;;5093089;28;20515;-62
2024/02/07 02:59:48;;;;;;;4.05;1.48;;;6.40;99.90;;;;;;5096127;28;20060;-61
2024/02/07 03:02:20;;;;;;;1.48;0.88;;;6.40;99.90;;;;;;5103515;28;20154;-61
2024/02/07 03:04:49;;;;;;;2.17;0.80;;;6.30;99.90;;;;;;5103006;28;20097;-61
2024/02/07 03:10:04;;;;;;;6.47;0.80;;;6.30;99.90;;;;;;5105861;28;20057;-61
2024/02/07 03:12:32;;;;;;;2.15;0.93;;;6.30;99.90;;;;;;5098004;28;20175;-61
2024/02/07 03:14:59;;;;;;;8.50;1.30;;;6.20;99.90;;;;;;5096431;28;20100;-61
2024/02/07 03:17:26;;;;;;;3.38;0.88;;;6.10;99.90;;;;;;5100352;28;20044;-61
2024/02/07 03:19:53;;;;;;;6.45;1.30;;;6.10;99.90;;;;;;5091528;28;20130;-61
2024/02/07 03:22:19;;;;;;;2.60;1.05;;;6.10;99.90;;;;;;5105087;28;20047;-61
2024/02/07 03:24:46;;;;;;;1.55;0.77;;;6.00;99.90;;;;;;5106012;28;20529;-62
2024/02/07 03:27:13;;;;;;;3.97;1.00;;;6.00;99.90;;;;;;5104188;28;20535;-62
2024/02/07 03:29:40;;;;;;;6.72;1.17;;;6.00;99.90;;;;;;5103137;28;20107;-61
2024/02/07 03:32:07;;;;;;;1.40;0.70;;;5.90;99.90;;;;;;5096430;28;20048;-61
2024/02/07 03:34:36;;;;;;;5.65;0.85;;;6.00;99.90;;;;;;5094200;28;20062;-61
2024/02/07 03:37:05;;;;;;;4.22;1.00;;;6.00;99.90;;;;;;5099912;28;20093;-62
2024/02/07 03:39:32;;;;;;;4.72;0.90;;;6.00;99.90;;;;;;5101610;28;20036;-61
2024/02/07 03:41:59;;;;;;;5.43;1.02;;;6.00;99.90;;;;;;5096367;28;20088;-62
2024/02/07 03:44:25;;;;;;;5.15;1.25;;;6.00;99.90;;;;;;5100230;28;20055;-61
2024/02/07 03:46:54;;;;;;;2.83;0.73;;;6.00;99.90;;;;;;5101391;28;20104;-61
2024/02/07 03:49:21;;;;;;;1.95;1.23;;;5.90;99.90;;;;;;5102291;28;20036;-61
2024/02/07 03:51:48;;;;;;;4.22;0.75;;;6.00;99.90;;;;;;5099094;28;20075;-61
2024/02/07 03:54:15;;;;;;;1.38;0.90;;;6.00;99.90;;;;;;5100854;28;20043;-62
2024/02/07 03:56:42;;;;;;;1.30;0.55;;;6.00;99.90;;;;;;5100040;28;20051;-61
2024/02/07 03:59:09;;;;;;;3.95;0.80;;;6.00;99.90;;;;;;5098475;28;20078;-64
2024/02/07 04:01:36;;;;;;;2.38;0.80;;;6.00;99.90;;;;;;5105061;28;20051;-62
2024/02/07 04:04:05;;;;;;;4.10;0.60;;;6.00;99.90;;;;;;5100377;28;20063;-62
2024/02/07 04:06:33;;;;;;;3.03;0.73;;;6.00;99.90;;;;;;5097124;28;20055;-61
2024/02/07 04:09:05;;;;;;;2.78;0.60;;;6.00;99.90;;;;;;5101697;28;20186;-61
2024/02/07 05:17:07;;;;;;;2.50;1.00;;;5.70;99.90;;;;;;5103811;28;20055;-62
2024/02/07 05:19:37;;;;;;;0.98;0.60;;;5.60;99.90;;;;;;5098559;28;20089;-62
2024/02/07 05:22:04;;;;;;;3.88;0.88;;;5.60;99.90;;;;;;5100881;28;20054;-63
2024/02/07 05:24:31;;;;;;;3.22;0.70;;;5.50;99.90;;;;;;5100461;28;20097;-62
2024/02/07 05:26:58;;;;;;;5.38;0.85;;;5.50;99.90;;;;;;5094151;28;20063;-62
2024/02/07 05:29:26;;;;;;;4.15;0.80;;;5.50;99.90;;;;;;5100585;28;20111;-62
2024/02/07 05:31:52;;;;;;;12.20;1.77;;;5.50;99.90;;;;;;5091878;28;20052;-63
2024/02/07 05:34:21;;;;;;;3.72;0.90;;;5.50;99.90;;;;;;5089951;28;20047;-63
2024/02/07 05:36:49;;;;;;;4.65;0.90;;;5.50;99.90;;;;;;5100141;28;20083;-62
2024/02/07 05:39:16;;;;;;;3.03;0.98;;;5.40;99.90;;;;;;5095121;28;20059;-62
2024/02/07 05:41:43;;;;;;;1.83;0.70;;;5.40;99.90;;;;;;5100771;28;20487;-62
2024/02/07 05:44:10;;;;;;;4.03;0.75;;;5.40;99.90;;;;;;5089118;28;20522;-61
2024/02/07 05:46:37;;;;;;;2.17;1.02;;;5.30;99.90;;;;;;5092694;28;20652;-60
2024/02/07 05:49:04;;;;;;;3.38;1.00;;;5.40;99.90;;;;;;5095864;28;20136;-61
2024/02/07 05:51:31;;;;;;;9.02;2.38;;;5.40;99.90;;;;;;5094010;28;20139;-61
2024/02/07 05:53:58;;;;;;;6.07;2.65;;;5.40;99.90;;;;;;5097540;28;20445;-61
2024/02/07 05:56:25;;;;;;;4.72;1.10;;;5.50;99.90;;;;;;5092926;28;20052;-61
2024/02/07 05:58:52;;;;;;;6.05;1.20;;;5.40;99.90;;;;;;5091423;28;20044;-61
2024/02/07 06:01:21;;;;;;;6.95;1.20;;;5.50;99.90;;;;;;5100898;28;20555;-62
2024/02/07 06:03:52;;;;;;;3.38;1.27;;;5.50;99.90;;;;;;5103610;28;20044;-61
2024/02/07 06:06:20;;;;;;;7.40;2.40;;;5.40;99.90;;;;;;5094779;28;20081;-61
2024/02/07 06:08:49;;;;;;;7.00;1.10;;;5.40;99.90;;;;;;5099289;28;20082;-61
2024/02/07 06:11:16;;;;;;;8.18;1.65;;;5.40;99.90;;;;;;5098832;28;20040;-61
2024/02/07 06:13:43;;;;;;;11.20;2.50;;;5.40;99.90;;;;;;5102612;28;20047;-61
2024/02/07 06:16:10;;;;;;;5.78;1.40;;;5.30;99.90;;;;;;5102949;28;20136;-62
2024/02/07 06:18:37;;;;;;;5.15;1.45;;;5.30;99.90;;;;;;5096713;28;20048;-62
2024/02/07 06:21:04;;;;;;;5.88;1.60;;;5.40;99.90;;;;;;5100726;28;20090;-62
2024/02/07 06:23:31;;;;;;;6.07;1.20;;;5.30;99.90;;;;;;5096944;28;20051;-62
2024/02/07 06:25:58;;;;;;;8.18;1.52;;;5.30;99.90;;;;;;5095475;28;20127;-62
2024/02/07 06:28:25;;;;;;;7.75;1.67;;;5.30;99.90;;;;;;5092441;28;20063;-62
2024/02/07 06:30:52;;;;;;;7.47;1.17;;;5.30;99.90;;;;;;5093694;28;20048;-62
2024/02/07 06:33:19;;;;;;;6.25;1.50;;;5.30;99.90;;;;;;5102640;28;20058;-62
2024/02/07 06:35:46;;;;;;;10.00;1.80;;;5.20;99.90;;;;;;5095397;28;20083;-62
2024/02/07 06:38:13;;;;;;;3.30;0.93;;;5.20;99.90;;;;;;5096246;28;20184;-61
2024/02/07 06:40:39;;;;;;;4.60;1.42;;;5.30;99.90;;;;;;5092876;28;20112;-62
2024/02/07 06:43:06;;;;;;;6.78;0.90;;;5.30;99.90;;;;;;5094324;28;20044;-62
2024/02/07 06:45:33;;;;;;;9.80;1.25;;;5.30;99.90;;;;;;5095982;28;20077;-62
2024/02/07 06:48:00;;;;;;;6.65;1.33;;;5.30;99.90;;;;;;5096033;28;20132;-62
2024/02/07 06:50:27;;;;;;;6.15;1.30;;;5.30;99.90;;;;;;5096608;28;20134;-62
2024/02/07 06:52:54;;;;;;;3.45;1.08;;;5.30;99.90;;;;;;5091260;28;20047;-62
2024/02/07 06:55:23;;;;;;;6.63;1.13;;;5.30;99.90;;;;;;5097337;28;20054;-62
2024/02/07 06:57:50;;;;;;;2.13;0.68;;;5.30;99.90;;;;;;5097563;28;20043;-62
2024/02/07 07:00:17;;;;;;;2.10;1.20;;;5.60;99.90;;;;;;5095004;28;20048;-62
2024/02/07 07:02:44;;;;;;;4.47;1.35;;;5.30;99.90;;;;;;5099180;28;20047;-61
2024/02/07 07:05:11;;;;;;;5.55;1.00;;;5.30;99.90;;;;;;5096017;28;20127;-62
2024/02/07 07:07:38;;;;;;;6.88;2.08;;;5.40;99.90;;;;;;5097855;28;20082;-63
2024/02/07 07:10:05;;;;;;;4.97;1.95;;;5.40;99.90;;;;;;5100117;28;20135;-62
2024/02/07 07:12:32;;;;;;;5.55;2.45;;;5.40;99.90;;;;;;5096020;28;20044;-62
2024/02/07 07:14:59;;;;;;;4.82;1.83;;;5.30;99.90;;;;;;5093348;28;20044;-61
2024/02/07 07:17:26;;;;;;;9.45;1.98;;;5.40;99.90;;;;;;5100526;28;20103;-62
2024/02/07 07:19:53;;;;;;;4.05;1.58;;;5.40;99.90;;;;;;5097238;28;20043;-62
2024/02/07 07:22:20;;;;;;;5.57;2.03;;;5.40;99.90;;;;;;5099645;28;20040;-62
2024/02/07 07:24:47;;;;;;;6.22;2.17;;;5.40;99.90;;;;;;5101073;28;20131;-62
2024/02/07 07:27:14;;;;;;;8.90;1.92;;;5.40;99.90;;;;;;5096669;28;20500;-62
2024/02/07 07:29:40;;;;;;;6.32;1.95;;;5.30;99.90;;;;;;5102677;28;20039;-62
2024/02/07 07:32:09;;;;;;;7.90;2.15;;;5.30;99.90;;;;;;5103607;28;20162;-62
2024/02/07 07:34:36;;;;;;;6.88;2.58;;;5.30;99.90;;;;;;5096340;28;20050;-62
2024/02/07 07:37:03;;;;;;;6.28;1.95;;;5.40;99.90;;;;;;5105086;28;20126;-61
2024/02/07 07:39:30;;;;;;;9.82;2.00;;;5.40;99.90;;;;;;5093900;28;20077;-60
2024/02/07 07:41:56;;;;;;;8.60;2.47;;;5.40;99.90;;;;;;5102487;28;20051;-60
2024/02/07 07:44:26;;;;;;;9.57;2.30;;;5.40;99.90;;;;;;5094833;28;20490;-60
2024/02/07 07:46:52;;;;;;;9.25;2.53;;;5.40;99.90;;;;;;5095584;28;20691;-60
2024/02/07 07:49:20;;;;;;;4.55;1.90;;;5.40;99.90;;;;;;5099500;28;20118;-61
2024/02/07 07:51:47;;;;;;;7.53;1.80;;;5.40;99.90;;;;;;5078830;28;20059;-61
2024/02/07 07:54:13;;;;;;;5.25;1.60;;;5.40;99.90;;;;;;5098698;28;20043;-61
2024/02/07 07:56:40;;;;;;;6.10;1.77;;;5.40;99.90;;;;;;5097634;28;20047;-61
2024/02/07 07:59:07;;;;;;;3.83;1.55;;;5.40;99.90;;;;;;5098946;28;20729;-61
2024/02/07 08:01:35;;;;;;;6.05;1.95;;;5.40;99.90;;;;;;5094088;28;20140;-60
2024/02/07 08:04:02;;;;;;;8.48;1.80;;;5.40;99.90;;;;;;5099048;28;20055;-60
2024/02/07 08:06:29;;;;;;;7.13;1.70;;;5.40;99.90;;;;;;5093176;28;20044;-60
2024/02/07 08:08:56;;;;;;;4.75;1.83;;;5.40;99.90;;;;;;5093370;28;20040;-60
2024/02/07 08:11:22;;;;;;;15.70;1.85;;;5.50;99.90;;;;;;5093770;28;20043;-61
2024/02/07 08:13:49;;;;;;;4.88;1.50;;;5.40;99.90;;;;;;5093463;28;20051;-61
2024/02/07 08:16:16;;;;;;;6.03;1.75;;;5.40;99.90;;;;;;5097316;28;20514;-60
2024/02/07 08:18:43;;;;;;;8.60;1.65;;;5.40;99.90;;;;;;5092520;28;20048;-61
2024/02/07 08:21:11;;;;;;;8.30;2.35;;;5.50;99.90;;;;;;5094864;28;20590;-60
2024/02/07 08:23:38;;;;;;;7.20;1.55;;;5.50;99.90;;;;;;5096828;28;20085;-60
2024/02/07 08:26:05;;;;;;;7.93;1.70;;;5.50;99.90;;;;;;5097783;28;20116;-61
2024/02/07 08:28:32;;;;;;;7.57;1.70;;;5.50;99.90;;;;;;5097941;28;20048;-60
2024/02/07 08:30:59;;;;;;;8.93;1.23;;;5.50;99.90;;;;;;5094692;28;20040;-61
2024/02/07 08:33:26;;;;;;;7.78;1.15;;;5.50;99.90;;;;;;5095539;28;20511;-61
2024/02/07 08:35:53;;;;;;;11.52;2.13;;;5.50;99.90;;;;;;5102666;28;20058;-61
2024/02/07 08:38:20;;;;;;;9.65;1.55;;;5.50;99.90;;;;;;5100153;28;20043;-60
2024/02/07 08:40:47;;;;;;;5.18;1.55;;;5.60;99.90;;;;;;5102481;28;20101;-59
2024/02/07 08:43:14;;;;;;;4.97;1.50;;;5.60;99.90;;;;;;5104728;28;20488;-61
2024/02/07 08:45:41;;;;;;;6.97;1.95;;;5.60;99.90;;;;;;5091199;28;20040;-60
2024/02/07 08:48:08;;;;;;;6.20;1.38;;;5.70;99.90;;;;;;5087727;28;20044;-60
2024/02/07 08:50:35;;;;;;;9.35;2.45;;;5.70;99.90;;;;;;5100154;28;20055;-60
2024/02/07 08:53:02;;;;;;;7.97;1.40;;;5.70;99.90;;;;;;5099551;28;20067;-60
2024/02/07 08:55:29;;;;;;;13.05;2.17;;;5.70;99.90;;;;;;5097268;28;20126;-60
2024/02/07 08:57:58;;;;;;;10.23;2.30;;;5.70;99.90;;;;;;5097875;28;20047;-60
2024/02/07 09:00:25;;;;;;;7.22;1.80;;;5.80;99.90;;;;;;5104998;28;20047;-60
2024/02/07 09:02:52;;;;;;;8.65;1.63;;;5.80;99.90;;;;;;5090368;28;20088;-60
2024/02/07 09:05:19;;;;;;;18.90;3.92;;;5.80;99.90;;;;;;5098727;28;20410;-60
2024/02/07 09:07:47;;;;;;;14.48;2.45;;;5.80;99.90;;;;;;5098515;28;20060;-60
2024/02/07 09:10:14;;;;;;;12.13;4.50;;;5.80;99.90;;;;;;5095931;28;20675;-60
2024/02/07 09:12:42;;;;;;;14.60;4.28;;;5.80;99.90;;;;;;5098851;28;20039;-60
2024/02/07 09:15:10;;;;;;;19.83;5.63;;;5.80;99.90;;;;;;5097122;28;20070;-60
2024/02/07 09:17:36;;;;;;;21.60;7.75;;;5.80;99.90;;;;;;5104659;28;20833;-60
2024/02/07 09:20:04;;;;;;;24.33;8.70;;;5.80;99.90;;;;;;5087582;28;20059;-60
2024/02/07 09:22:31;;;;;;;22.67;8.07;;;5.80;99.90;;;;;;5093790;28;20040;-60
2024/02/07 09:24:58;;;;;;;25.13;8.27;;;5.90;99.90;;;;;;5102215;28;20065;-60
2024/02/07 09:27:24;;;;;;;22.85;8.07;;;6.00;99.90;;;;;;5100672;28;20036;-60
2024/02/07 09:29:53;;;;;;;19.00;5.55;;;6.00;99.90;;;;;;5089265;28;20109;-60
2024/02/07 09:32:37;;;;;;;16.38;5.15;;;6.00;99.90;;;;;;5093327;28;20075;-60
2024/02/07 09:35:04;;;;;;;9.98;3.97;;;6.10;99.90;;;;;;5097209;28;20047;-60
2024/02/07 09:37:31;;;;;;;12.02;4.28;;;6.10;99.90;;;;;;5103394;28;20403;-60
2024/02/07 09:39:58;;;;;;;12.68;4.05;;;6.20;99.90;;;;;;5106128;28;20621;-60
2024/02/07 09:42:25;;;;;;;9.93;2.40;;;6.20;99.90;;;;;;5090337;28;20039;-60
2024/02/07 09:44:52;;;;;;;12.75;2.95;;;6.20;99.90;;;;;;5093106;28;20613;-60
2024/02/07 09:47:19;;;;;;;12.13;2.92;;;6.20;99.90;;;;;;5089158;28;20043;-61
2024/02/07 09:49:46;;;;;;;13.07;3.80;;;6.20;99.90;;;;;;5098755;28;20191;-60
2024/02/07 09:52:16;;;;;;;8.00;2.10;;;6.30;99.90;;;;;;5101134;28;20055;-60
2024/02/07 09:54:43;;;;;;;10.82;2.35;;;6.40;99.90;;;;;;5100565;28;20047;-60
2024/02/07 09:57:10;;;;;;;10.35;2.95;;;6.40;99.90;;;;;;5102292;28;20557;-61
2024/02/07 09:59:37;;;;;;;11.52;3.78;;;6.40;99.90;;;;;;5099949;28;20051;-60
2024/02/07 10:02:04;;;;;;;9.68;2.60;;;6.50;99.90;;;;;;5085727;28;20044;-61
2024/02/07 10:04:35;;;;;;;9.95;3.03;;;6.50;99.90;;;;;;5099230;28;20047;-60
2024/02/07 10:07:03;;;;;;;12.45;2.70;;;6.60;99.90;;;;;;5080832;28;20094;-60
2024/02/07 10:09:31;;;;;;;9.52;3.17;;;6.60;99.90;;;;;;5080547;28;20052;-60
2024/02/07 10:11:58;;;;;;;13.00;2.95;;;6.60;99.90;;;;;;5095734;28;20047;-60
2024/02/07 10:14:24;;;;;;;23.25;3.72;;;6.60;99.90;;;;;;5095140;28;20585;-60
2024/02/07 10:16:51;;;;;;;11.13;3.75;;;6.70;99.90;;;;;;5103509;28;20074;-60
2024/02/07 10:19:18;;;;;;;8.10;3.53;;;6.80;99.90;;;;;;5098196;28;20067;-59
2024/02/07 10:21:45;;;;;;;12.13;3.50;;;6.80;99.90;;;;;;5099419;28;20040;-59
2024/02/07 10:24:12;;;;;;;12.85;3.22;;;6.80;99.90;;;;;;5095471;28;20101;-60
2024/02/07 10:26:39;;;;;;;15.57;3.55;;;6.80;99.90;;;;;;5098056;28;20078;-60
2024/02/07 10:29:06;;;;;;;11.52;3.50;;;6.80;99.90;;;;;;5096962;28;20054;-61
2024/02/07 10:31:34;;;;;;;9.57;4.22;;;6.80;99.90;;;;;;5094805;28;20062;-60
2024/02/07 10:34:01;;;;;;;11.55;3.40;;;6.90;99.90;;;;;;5099693;28;20051;-60
2024/02/07 10:36:28;;;;;;;28.90;6.35;;;6.90;99.90;;;;;;5102648;28;20070;-59
2024/02/07 10:39:05;;;;;;;11.60;2.42;;;6.90;99.90;;;;;;5102269;28;20184;-60
2024/02/07 10:41:32;;;;;;;13.65;3.28;;;7.00;99.90;;;;;;5101228;28;20042;-60
2024/02/07 10:44:08;;;;;;;10.68;2.47;;;7.10;99.90;;;;;;5105204;28;20450;-59
2024/02/07 10:46:35;;;;;;;7.95;2.65;;;7.10;99.90;;;;;;5099283;28;20380;-59
2024/02/07 10:49:02;;;;;;;16.33;2.33;;;7.20;99.90;;;;;;5107074;28;20694;-61
2024/02/07 10:51:32;;;;;;;11.50;2.15;;;7.30;99.90;;;;;;5105419;28;20108;-61
2024/02/07 10:54:07;;;;;;;11.77;1.92;;;7.30;99.90;;;;;;5094643;28;20555;-60
2024/02/07 10:56:35;;;;;;;8.82;1.55;;;7.30;99.90;;;;;;5091896;28;20158;-61
2024/02/07 10:59:05;;;;;;;9.63;1.15;;;7.40;99.90;;;;;;5108887;27;20480;-61
2024/02/07 11:01:32;;;;;;;2.83;0.88;;;7.40;99.90;;;;;;5104939;28;20242;-61
2024/02/07 11:04:00;;;;;;;8.20;1.85;;;7.30;99.90;;;;;;5098029;28;20056;-60
2024/02/07 11:06:27;;;;;;;7.35;1.42;;;7.30;99.90;;;;;;5100219;28;20043;-61
2024/02/07 11:08:59;;;;;;;11.52;1.77;;;7.20;99.90;;;;;;5097819;28;20414;-61
2024/02/07 11:11:27;;;;;;;6.55;1.38;;;7.20;99.90;;;;;;5098464;28;20040;-60
2024/02/07 11:13:57;;;;;;;4.35;1.30;;;7.20;99.90;;;;;;5106254;28;20077;-61
2024/02/07 11:16:24;;;;;;;4.57;1.25;;;7.20;99.90;;;;;;5101946;28;20414;-61
2024/02/07 11:18:51;;;;;;;7.72;1.40;;;7.20;99.90;;;;;;5108379;28;20052;-61
2024/02/07 11:21:23;;;;;;;6.97;1.98;;;7.20;99.90;;;;;;5102896;28;20047;-61
2024/02/07 11:23:50;;;;;;;7.25;1.35;;;7.30;99.90;;;;;;5090197;28;20064;-61
2024/02/07 11:26:17;;;;;;;4.30;1.92;;;7.30;99.90;;;;;;5102500;28;20043;-60
2024/02/07 11:28:45;;;;;;;15.15;2.25;;;7.40;99.90;;;;;;5107806;28;20103;-60
2024/02/07 11:31:14;;;;;;;6.45;1.85;;;7.40;99.90;;;;;;5087715;28;20127;-61
2024/02/07 11:33:43;;;;;;;11.75;2.25;;;7.50;99.90;;;;;;5094992;28;20059;-61
2024/02/07 11:36:17;;;;;;;8.63;1.42;;;7.50;99.90;;;;;;5103583;28;20044;-60
2024/02/07 11:38:56;;;;;;;11.32;1.52;;;7.60;99.90;;;;;;5097569;28;20093;-60
2024/02/07 11:41:23;;;;;;;7.68;1.50;;;7.60;99.90;;;;;;5104624;28;20557;-60
2024/02/07 11:43:53;;;;;;;3.55;0.95;;;7.60;99.90;;;;;;5106356;28;20086;-61
2024/02/07 11:46:22;;;;;;;11.25;2.53;;;7.60;99.90;;;;;;5093148;28;20093;-60
2024/02/07 11:48:53;;;;;;;6.88;1.50;;;7.60;99.90;;;;;;5099046;28;20668;-61
2024/02/07 11:51:21;;;;;;;7.03;1.40;;;7.60;99.90;;;;;;5104188;28;20130;-60
2024/02/07 11:53:48;;;;;;;14.90;1.65;;;7.60;99.90;;;;;;5088523;28;20040;-60
2024/02/07 11:56:20;;;;;;;4.40;1.33;;;7.60;99.90;;;;;;5106484;28;20047;-60
2024/02/07 11:58:49;;;;;;;4.28;1.10;;;7.60;99.90;;;;;;5096439;28;20043;-60
2024/02/07 12:01:16;;;;;;;7.25;1.13;;;7.60;99.90;;;;;;5097405;28;20044;-60
2024/02/07 12:03:43;;;;;;;6.03;1.30;;;7.60;99.90;;;;;;5100601;28;20058;-60
2024/02/07 12:06:11;;;;;;;9.65;1.70;;;7.50;99.90;;;;;;5102579;27;20040;-60
2024/02/07 12:08:38;;;;;;;9.73;1.33;;;7.60;99.90;;;;;;5102688;28;20523;-60
2024/02/07 12:11:06;;;;;;;9.10;3.15;;;7.60;99.90;;;;;;5107021;28;20126;-60
2024/02/07 12:13:36;;;;;;;4.95;0.95;;;7.60;99.90;;;;;;5101635;28;20492;-60
2024/02/07 12:16:04;;;;;;;6.90;1.35;;;7.60;99.90;;;;;;5105023;28;20047;-60
2024/02/07 12:18:32;;;;;;;6.65;1.10;;;7.70;99.90;;;;;;5103974;28;20039;-59
2024/02/07 12:21:01;;;;;;;3.90;1.27;;;7.70;99.90;;;;;;5091831;28;20044;-61
2024/02/07 12:23:29;;;;;;;6.38;1.45;;;7.70;99.90;;;;;;5104580;28;20531;-60
2024/02/07 12:26:00;;;;;;;4.15;1.00;;;7.60;99.90;;;;;;5082947;28;20064;-60
2024/02/07 12:28:27;;;;;;;7.57;1.58;;;7.60;99.90;;;;;;5093700;28;20112;-60
2024/02/07 12:30:57;;;;;;;8.57;1.10;;;7.60;99.90;;;;;;5106193;28;20043;-59
2024/02/07 12:33:24;;;;;;;10.18;1.00;;;7.70;99.90;;;;;;5101486;28;20044;-59
2024/02/07 12:35:59;;;;;;;5.82;1.10;;;7.70;99.90;;;;;;5098586;28;20100;-59
2024/02/07 12:38:26;;;;;;;11.32;2.67;;;7.80;99.90;;;;;;5103897;28;20119;-60
2024/02/07 12:40:54;;;;;;;7.90;1.70;;;7.80;99.90;;;;;;5096285;28;20117;-60
2024/02/07 12:43:24;;;;;;;10.85;1.50;;;7.80;99.90;;;;;;5088811;28;20071;-59
2024/02/07 12:45:54;;;;;;;8.02;1.63;;;7.80;99.90;;;;;;5096042;28;20479;-59
2024/02/07 12:48:22;;;;;;;9.05;3.00;;;7.80;99.90;;;;;;5093338;28;20048;-60
2024/02/07 12:50:50;;;;;;;10.10;2.10;;;7.80;99.90;;;;;;5096469;28;20409;-60
2024/02/07 12:53:17;;;;;;;9.60;2.22;;;7.80;99.90;;;;;;5101067;28;20051;-60
2024/02/07 12:55:48;;;;;;;15.20;2.83;;;7.80;99.90;;;;;;5097962;28;20044;-60
2024/02/07 12:58:15;;;;;;;11.82;2.80;;;7.80;99.90;;;;;;5102523;28;20058;-60
2024/02/07 13:00:42;;;;;;;9.30;2.70;;;7.70;99.90;;;;;;5095220;28;20043;-60
2024/02/07 13:03:10;;;;;;;7.68;2.22;;;7.70;99.90;;;;;;5101716;28;20040;-60
2024/02/07 13:05:38;;;;;;;12.93;2.28;;;7.60;99.90;;;;;;5090634;28;20188;-60
2024/02/07 13:08:09;;;;;;;6.18;1.60;;;7.60;99.90;;;;;;5101192;28;20344;-59
2024/02/07 13:10:39;;;;;;;11.73;2.45;;;7.50;99.90;;;;;;5089972;28;20083;-60
2024/02/07 13:13:07;;;;;;;6.70;1.77;;;7.50;99.90;;;;;;5105179;28;20070;-60
2024/02/07 13:15:33;;;;;;;12.55;2.47;;;7.50;99.90;;;;;;5096025;28;20051;-59
2024/02/07 13:18:02;;;;;;;15.88;2.83;;;7.50;99.90;;;;;;5102582;28;20071;-60
2024/02/07 13:20:29;;;;;;;12.10;1.88;;;7.50;99.90;;;;;;5104445;28;20047;-64
2024/02/07 13:22:56;;;;;;;6.68;1.88;;;7.50;99.90;;;;;;5093568;28;20048;-60
2024/02/07 13:25:26;;;;;;;8.95;1.95;;;7.50;99.90;;;;;;5088634;28;20051;-59
2024/02/07 13:27:53;;;;;;;15.05;2.03;;;7.50;99.90;;;;;;5101456;28;20044;-59
2024/02/07 13:30:20;;;;;;;9.68;2.85;;;7.50;99.90;;;;;;5091978;28;20064;-59
2024/02/07 13:32:47;;;;;;;9.27;1.80;;;7.50;99.90;;;;;;5096944;28;20393;-59
2024/02/07 13:35:15;;;;;;;14.07;1.70;;;7.50;99.90;;;;;;5099880;28;20080;-60
2024/02/07 13:37:42;;;;;;;10.30;2.33;;;7.50;99.90;;;;;;5104279;28;20123;-60
2024/02/07 13:40:10;;;;;;;8.32;2.05;;;7.50;99.90;;;;;;5103391;28;20591;-63
2024/02/07 13:42:37;;;;;;;9.85;2.78;;;7.50;99.90;;;;;;5103421;28;20040;-60
2024/02/07 13:45:06;;;;;;;13.80;2.28;;;7.50;99.90;;;;;;5103941;28;20051;-59
2024/02/07 13:47:33;;;;;;;14.57;2.83;;;7.50;99.90;;;;;;5101604;28;20043;-59
2024/02/07 13:50:01;;;;;;;8.85;3.08;;;7.50;99.90;;;;;;5102020;28;20044;-60
2024/02/07 13:52:27;;;;;;;11.93;3.00;;;7.50;99.90;;;;;;5094846;28;20058;-60
2024/02/07 13:54:56;;;;;;;15.93;2.78;;;7.60;99.90;;;;;;5100740;28;20046;-60
2024/02/07 13:57:23;;;;;;;11.85;2.33;;;7.60;99.90;;;;;;5092263;28;20083;-60
2024/02/07 13:59:50;;;;;;;6.72;2.08;;;7.50;99.90;;;;;;5103084;28;20044;-60
2024/02/07 14:02:17;;;;;;;10.90;3.22;;;7.50;99.90;;;;;;5094323;28;20493;-60
2024/02/07 14:04:44;;;;;;;14.10;2.80;;;7.40;99.90;;;;;;5103255;28;20566;-60
2024/02/07 14:07:10;;;;;;;18.08;2.67;;;7.40;99.90;;;;;;5101084;28;20062;-60